sensor_id;sensor_type;location;lat;lon;timestamp;pressure;altitude;pressure_sealevel;temperature;humidity
69247;BME280;56358;56.328;43.992;2023-06-19T00:01:36;100798.66;;;11.05;55.29
69247;BME280;56358;56.328;43.992;2023-06-19T00:03:37;100826.16;;;11.20;54.75
69247;BME280;56358;56.328;43.992;2023-06-19T00:05:37;100842.91;;;11.24;54.37
69247;BME280;56358;56.328;43.992;2023-06-19T00:07:38;100843.22;;;11.19;54.50
69247;BME280;56358;56.328;43.992;2023-06-19T00:09:39;100799.09;;;10.99;54.27
69247;BME280;56358;56.328;43.992;2023-06-19T00:11:40;100826.63;;;11.14;54.52
69247;BME280;56358;56.328;43.992;2023-06-19T00:13:40;100848.41;;;11.22;55.29
69247;BME280;56358;56.328;43.992;2023-06-19T00:15:41;100842.72;;;11.14;55.83
69247;BME280;56358;56.328;43.992;2023-06-19T00:17:42;100842.72;;;11.14;56.38
69247;BME280;56358;56.328;43.992;2023-06-19T00:19:43;100845.00;;;11.07;57.18
69247;BME280;56358;56.328;43.992;2023-06-19T00:21:44;100809.28;;;10.83;57.29
69247;BME280;56358;56.328;43.992;2023-06-19T00:23:46;100843.50;;;11.03;57.20
69247;BME280;56358;56.328;43.992;2023-06-19T00:25:47;100855.91;;;10.93;57.53
69247;BME280;56358;56.328;43.992;2023-06-19T00:27:47;100853.03;;;10.83;57.96
69247;BME280;56358;56.328;43.992;2023-06-19T00:29:48;100846.19;;;10.79;58.87
69247;BME280;56358;56.328;43.992;2023-06-19T00:31:49;100805.41;;;10.50;59.37
69247;BME280;56358;56.328;43.992;2023-06-19T00:33:50;100843.97;;;10.73;58.78
69247;BME280;56358;56.328;43.992;2023-06-19T00:35:51;100854.06;;;10.69;59.20
69247;BME280;56358;56.328;43.992;2023-06-19T00:37:52;100842.56;;;10.67;58.83
69247;BME280;56358;56.328;43.992;2023-06-19T00:39:52;100839.88;;;10.67;58.63
69247;BME280;56358;56.328;43.992;2023-06-19T00:41:53;100843.75;;;10.63;58.92
69247;BME280;56358;56.328;43.992;2023-06-19T00:43:54;100856.72;;;10.69;58.60
69247;BME280;56358;56.328;43.992;2023-06-19T00:45:57;100844.16;;;10.70;58.27
69247;BME280;56358;56.328;43.992;2023-06-19T00:47:59;100846.41;;;10.76;58.03
69247;BME280;56358;56.328;43.992;2023-06-19T00:50:00;100842.78;;;10.77;57.50
69247;BME280;56358;56.328;43.992;2023-06-19T00:52:01;100800.97;;;10.62;57.52
69247;BME280;56358;56.328;43.992;2023-06-19T00:54:02;100841.34;;;10.84;57.70
69247;BME280;56358;56.328;43.992;2023-06-19T00:56:03;100848.31;;;10.87;57.85
69247;BME280;56358;56.328;43.992;2023-06-19T00:58:05;100844.53;;;10.89;57.53
69247;BME280;56358;56.328;43.992;2023-06-19T01:00:07;100837.13;;;10.93;57.24
69247;BME280;56358;56.328;43.992;2023-06-19T01:02:09;100852.03;;;10.97;56.61
69247;BME280;56358;56.328;43.992;2023-06-19T01:04:10;100827.00;;;10.97;56.01
69247;BME280;56358;56.328;43.992;2023-06-19T01:06:17;100838.78;;;11.07;55.69
69247;BME280;56358;56.328;43.992;2023-06-19T01:10:56;100843.75;;;11.24;55.48
69247;BME280;56358;56.328;43.992;2023-06-19T01:13:19;100845.09;;;11.30;55.84
69247;BME280;56358;56.328;43.992;2023-06-19T01:15:22;100845.63;;;11.35;55.42
69247;BME280;56358;56.328;43.992;2023-06-19T01:17:26;100812.63;;;11.22;55.77
69247;BME280;56358;56.328;43.992;2023-06-19T01:19:28;100827.78;;;11.34;55.66
69247;BME280;56358;56.328;43.992;2023-06-19T01:21:29;100855.41;;;11.48;55.78
69247;BME280;56358;56.328;43.992;2023-06-19T01:23:30;100813.50;;;11.22;55.90
69247;BME280;56358;56.328;43.992;2023-06-19T01:25:30;100850.31;;;11.45;56.14
69247;BME280;56358;56.328;43.992;2023-06-19T01:27:31;100851.13;;;11.45;56.16
69247;BME280;56358;56.328;43.992;2023-06-19T01:29:32;100846.25;;;11.39;56.48
69247;BME280;56358;56.328;43.992;2023-06-19T01:31:36;100838.09;;;11.40;56.56
69247;BME280;56358;56.328;43.992;2023-06-19T01:33:40;100838.19;;;11.39;57.00
69247;BME280;56358;56.328;43.992;2023-06-19T01:35:43;100821.81;;;11.31;56.86
69247;BME280;56358;56.328;43.992;2023-06-19T01:37:47;100832.31;;;11.34;57.45
69247;BME280;56358;56.328;43.992;2023-06-19T01:39:50;100830.22;;;11.26;57.30
69247;BME280;56358;56.328;43.992;2023-06-19T01:41:51;100808.34;;;11.19;57.38
69247;BME280;56358;56.328;43.992;2023-06-19T01:43:53;100845.38;;;11.38;57.67
69247;BME280;56358;56.328;43.992;2023-06-19T01:45:55;100844.41;;;11.39;57.71
69247;BME280;56358;56.328;43.992;2023-06-19T01:47:56;100810.69;;;11.24;57.84
69247;BME280;56358;56.328;43.992;2023-06-19T01:49:57;100840.91;;;11.50;56.98
69247;BME280;56358;56.328;43.992;2023-06-19T01:51:58;100838.09;;;11.52;56.82
69247;BME280;56358;56.328;43.992;2023-06-19T01:54:01;100850.56;;;11.53;56.52
69247;BME280;56358;56.328;43.992;2023-06-19T01:56:02;100811.47;;;11.37;56.20
69247;BME280;56358;56.328;43.992;2023-06-19T01:58:03;100822.59;;;11.44;55.65
69247;BME280;56358;56.328;43.992;2023-06-19T02:00:04;100860.88;;;11.70;55.66
69247;BME280;56358;56.328;43.992;2023-06-19T02:02:07;100865.41;;;11.81;55.99
69247;BME280;56358;56.328;43.992;2023-06-19T02:04:08;100845.41;;;11.85;55.96
69247;BME280;56358;56.328;43.992;2023-06-19T02:06:09;100859.75;;;11.97;55.67
69247;BME280;56358;56.328;43.992;2023-06-19T02:08:10;100848.88;;;11.99;56.04
69247;BME280;56358;56.328;43.992;2023-06-19T02:10:11;100814.13;;;11.73;55.79
69247;BME280;56358;56.328;43.992;2023-06-19T02:12:12;100864.66;;;12.03;55.95
69247;BME280;56358;56.328;43.992;2023-06-19T02:14:15;100863.19;;;12.11;56.18
69247;BME280;56358;56.328;43.992;2023-06-19T02:16:16;100866.63;;;12.13;56.34
69247;BME280;56358;56.328;43.992;2023-06-19T02:18:17;100835.72;;;12.07;56.06
69247;BME280;56358;56.328;43.992;2023-06-19T02:20:17;100860.41;;;12.23;56.27
69247;BME280;56358;56.328;43.992;2023-06-19T02:22:18;100859.53;;;12.12;56.86
69247;BME280;56358;56.328;43.992;2023-06-19T02:24:19;100831.00;;;11.86;57.31
69247;BME280;56358;56.328;43.992;2023-06-19T02:26:20;100868.44;;;12.12;57.50
69247;BME280;56358;56.328;43.992;2023-06-19T02:28:21;100865.03;;;12.10;56.52
69247;BME280;56358;56.328;43.992;2023-06-19T02:30:22;100863.69;;;12.04;56.27
69247;BME280;56358;56.328;43.992;2023-06-19T02:32:22;100864.16;;;11.98;56.07
69247;BME280;56358;56.328;43.992;2023-06-19T02:34:23;100829.53;;;11.71;56.26
69247;BME280;56358;56.328;43.992;2023-06-19T02:36:24;100837.06;;;11.66;56.00
69247;BME280;56358;56.328;43.992;2023-06-19T02:38:26;100870.06;;;11.79;56.34
69247;BME280;56358;56.328;43.992;2023-06-19T02:40:27;100877.38;;;11.77;56.61
69247;BME280;56358;56.328;43.992;2023-06-19T02:42:27;100833.72;;;11.51;55.16
69247;BME280;56358;56.328;43.992;2023-06-19T02:44:28;100864.88;;;11.65;55.23
69247;BME280;56358;56.328;43.992;2023-06-19T02:46:29;100862.84;;;11.68;56.53
69247;BME280;56358;56.328;43.992;2023-06-19T02:48:30;100871.75;;;11.69;55.87
69247;BME280;56358;56.328;43.992;2023-06-19T02:50:31;100869.94;;;11.69;56.04
69247;BME280;56358;56.328;43.992;2023-06-19T02:52:31;100830.41;;;11.47;56.98
69247;BME280;56358;56.328;43.992;2023-06-19T02:54:32;100834.19;;;11.45;54.85
69247;BME280;56358;56.328;43.992;2023-06-19T02:56:33;100864.97;;;11.52;54.85
69247;BME280;56358;56.328;43.992;2023-06-19T02:58:34;100858.88;;;11.50;56.28
69247;BME280;56358;56.328;43.992;2023-06-19T03:00:35;100860.47;;;11.52;56.68
69247;BME280;56358;56.328;43.992;2023-06-19T03:02:35;100857.66;;;11.54;55.80
69247;BME280;56358;56.328;43.992;2023-06-19T03:04:36;100859.50;;;11.53;54.48
69247;BME280;56358;56.328;43.992;2023-06-19T03:06:37;100866.94;;;11.61;54.42
69247;BME280;56358;56.328;43.992;2023-06-19T03:08:40;100868.91;;;11.59;54.88
69247;BME280;56358;56.328;43.992;2023-06-19T03:10:41;100832.97;;;11.37;54.71
69247;BME280;56358;56.328;43.992;2023-06-19T03:12:42;100862.44;;;11.62;54.46
69247;BME280;56358;56.328;43.992;2023-06-19T03:14:43;100848.50;;;11.56;54.28
69247;BME280;56358;56.328;43.992;2023-06-19T03:16:43;100859.41;;;11.66;53.85
69247;BME280;56358;56.328;43.992;2023-06-19T03:18:45;100819.91;;;11.44;53.11
69247;BME280;56358;56.328;43.992;2023-06-19T03:20:45;100838.28;;;11.62;52.30
69247;BME280;56358;56.328;43.992;2023-06-19T03:22:46;100867.25;;;11.69;52.31
69247;BME280;56358;56.328;43.992;2023-06-19T03:24:47;100815.91;;;11.50;51.73
69247;BME280;56358;56.328;43.992;2023-06-19T03:26:48;100858.34;;;11.80;51.73
69247;BME280;56358;56.328;43.992;2023-06-19T03:28:49;100851.91;;;11.83;51.69
69247;BME280;56358;56.328;43.992;2023-06-19T03:30:50;100859.22;;;11.92;51.14
69247;BME280;56358;56.328;43.992;2023-06-19T03:32:50;100847.19;;;11.98;50.63
69247;BME280;56358;56.328;43.992;2023-06-19T03:34:51;100852.56;;;12.09;51.08
69247;BME280;56358;56.328;43.992;2023-06-19T03:36:52;100863.06;;;12.12;51.38
69247;BME280;56358;56.328;43.992;2023-06-19T03:38:53;100857.59;;;12.14;51.48
69247;BME280;56358;56.328;43.992;2023-06-19T03:40:55;100851.34;;;12.13;51.43
69247;BME280;56358;56.328;43.992;2023-06-19T03:42:56;100856.50;;;12.16;51.41
69247;BME280;56358;56.328;43.992;2023-06-19T03:44:57;100814.56;;;12.02;51.82
69247;BME280;56358;56.328;43.992;2023-06-19T03:46:58;100843.53;;;12.21;52.62
69247;BME280;56358;56.328;43.992;2023-06-19T03:48:58;100839.38;;;12.40;52.14
69247;BME280;56358;56.328;43.992;2023-06-19T03:50:59;100859.31;;;12.49;51.83
69247;BME280;56358;56.328;43.992;2023-06-19T03:53:00;100852.34;;;12.46;52.30
69247;BME280;56358;56.328;43.992;2023-06-19T03:55:00;100853.41;;;12.55;52.61
69247;BME280;56358;56.328;43.992;2023-06-19T03:57:01;100860.38;;;12.57;52.45
69247;BME280;56358;56.328;43.992;2023-06-19T03:59:02;100852.09;;;12.61;52.18
69247;BME280;56358;56.328;43.992;2023-06-19T04:01:03;100851.09;;;12.62;52.42
69247;BME280;56358;56.328;43.992;2023-06-19T04:03:05;100853.16;;;12.69;52.16
69247;BME280;56358;56.328;43.992;2023-06-19T04:05:06;100853.53;;;12.76;52.42
69247;BME280;56358;56.328;43.992;2023-06-19T04:07:07;100858.50;;;12.92;52.64
69247;BME280;56358;56.328;43.992;2023-06-19T04:09:08;100860.44;;;13.01;52.39
69247;BME280;56358;56.328;43.992;2023-06-19T04:11:09;100867.78;;;13.11;52.09
69247;BME280;56358;56.328;43.992;2023-06-19T04:13:10;100865.28;;;13.19;51.52
69247;BME280;56358;56.328;43.992;2023-06-19T04:15:10;100849.75;;;13.22;51.59
69247;BME280;56358;56.328;43.992;2023-06-19T04:17:12;100851.69;;;13.32;51.28
69247;BME280;56358;56.328;43.992;2023-06-19T04:19:12;100853.63;;;13.41;50.91
69247;BME280;56358;56.328;43.992;2023-06-19T04:21:14;100852.25;;;13.47;51.09
69247;BME280;56358;56.328;43.992;2023-06-19T04:23:14;100837.47;;;13.30;51.39
69247;BME280;56358;56.328;43.992;2023-06-19T04:25:15;100857.31;;;13.40;51.09
69247;BME280;56358;56.328;43.992;2023-06-19T04:27:16;100844.97;;;13.26;51.13
69247;BME280;56358;56.328;43.992;2023-06-19T04:29:17;100839.69;;;13.24;51.28
69247;BME280;56358;56.328;43.992;2023-06-19T04:31:18;100832.50;;;13.25;51.62
69247;BME280;56358;56.328;43.992;2023-06-19T04:33:19;100803.09;;;13.22;51.29
69247;BME280;56358;56.328;43.992;2023-06-19T04:35:21;100828.72;;;13.49;50.82
69247;BME280;56358;56.328;43.992;2023-06-19T04:37:24;100837.38;;;13.64;50.06
69247;BME280;56358;56.328;43.992;2023-06-19T04:39:24;100843.91;;;13.71;50.26
69247;BME280;56358;56.328;43.992;2023-06-19T04:41:25;100837.47;;;13.83;49.83
69247;BME280;56358;56.328;43.992;2023-06-19T04:43:26;100826.09;;;14.01;49.98
69247;BME280;56358;56.328;43.992;2023-06-19T04:45:26;100827.28;;;14.08;49.10
69247;BME280;56358;56.328;43.992;2023-06-19T04:47:27;100811.88;;;14.20;47.89
69247;BME280;56358;56.328;43.992;2023-06-19T04:49:31;100814.75;;;14.38;47.78
69247;BME280;56358;56.328;43.992;2023-06-19T04:51:32;100821.06;;;14.58;47.11
69247;BME280;56358;56.328;43.992;2023-06-19T04:53:33;100824.41;;;14.71;46.35
69247;BME280;56358;56.328;43.992;2023-06-19T04:55:34;100826.00;;;14.84;45.88
69247;BME280;56358;56.328;43.992;2023-06-19T04:57:36;100821.91;;;14.99;45.42
69247;BME280;56358;56.328;43.992;2023-06-19T04:59:37;100811.25;;;15.07;45.06
69247;BME280;56358;56.328;43.992;2023-06-19T05:01:38;100818.94;;;15.12;44.17
69247;BME280;56358;56.328;43.992;2023-06-19T05:03:42;100812.84;;;15.10;44.77
69247;BME280;56358;56.328;43.992;2023-06-19T05:05:43;100817.78;;;15.15;45.02
69247;BME280;56358;56.328;43.992;2023-06-19T05:07:45;100819.78;;;15.22;45.25
69247;BME280;56358;56.328;43.992;2023-06-19T05:09:46;100814.81;;;15.28;45.05
69247;BME280;56358;56.328;43.992;2023-06-19T05:11:47;100813.41;;;15.33;44.42
69247;BME280;56358;56.328;43.992;2023-06-19T05:13:47;100808.84;;;15.44;43.02
69247;BME280;56358;56.328;43.992;2023-06-19T05:15:48;100814.66;;;15.58;42.58
69247;BME280;56358;56.328;43.992;2023-06-19T05:17:50;100809.09;;;15.60;43.27
69247;BME280;56358;56.328;43.992;2023-06-19T05:19:51;100808.53;;;15.66;43.30
69247;BME280;56358;56.328;43.992;2023-06-19T05:21:51;100815.34;;;15.70;42.50
69247;BME280;56358;56.328;43.992;2023-06-19T05:23:52;100811.38;;;15.74;41.25
69247;BME280;56358;56.328;43.992;2023-06-19T05:25:53;100803.25;;;15.74;40.53
69247;BME280;56358;56.328;43.992;2023-06-19T05:27:54;100783.50;;;15.64;40.03
69247;BME280;56358;56.328;43.992;2023-06-19T05:29:55;100793.47;;;15.83;39.90
69247;BME280;56358;56.328;43.992;2023-06-19T05:31:56;100807.50;;;15.97;37.32
69247;BME280;56358;56.328;43.992;2023-06-19T05:33:56;100805.81;;;15.96;36.21
69247;BME280;56358;56.328;43.992;2023-06-19T05:35:59;100802.78;;;15.99;36.98
69247;BME280;56358;56.328;43.992;2023-06-19T05:37:59;100765.41;;;15.84;37.40
69247;BME280;56358;56.328;43.992;2023-06-19T05:40:00;100808.88;;;16.11;37.17
69247;BME280;56358;56.328;43.992;2023-06-19T05:42:01;100772.94;;;15.90;36.67
69247;BME280;56358;56.328;43.992;2023-06-19T05:44:03;100805.47;;;16.08;35.91
69247;BME280;56358;56.328;43.992;2023-06-19T05:46:03;100807.22;;;16.00;37.41
69247;BME280;56358;56.328;43.992;2023-06-19T05:48:04;100802.94;;;15.97;36.75
69247;BME280;56358;56.328;43.992;2023-06-19T05:50:05;100763.44;;;15.86;36.42
69247;BME280;56358;56.328;43.992;2023-06-19T05:52:07;100784.44;;;16.02;35.92
69247;BME280;56358;56.328;43.992;2023-06-19T05:54:08;100799.78;;;16.02;34.64
69247;BME280;56358;56.328;43.992;2023-06-19T05:56:10;100808.31;;;16.07;35.06
69247;BME280;56358;56.328;43.992;2023-06-19T05:58:11;100802.63;;;16.10;34.54
69247;BME280;56358;56.328;43.992;2023-06-19T06:00:12;100795.94;;;16.14;35.12
69247;BME280;56358;56.328;43.992;2023-06-19T06:02:14;100795.03;;;16.23;35.76
69247;BME280;56358;56.328;43.992;2023-06-19T06:04:16;100787.44;;;16.37;36.59
69247;BME280;56358;56.328;43.992;2023-06-19T06:06:16;100806.31;;;16.47;35.80
69247;BME280;56358;56.328;43.992;2023-06-19T06:08:17;100793.53;;;16.39;36.58
69247;BME280;56358;56.328;43.992;2023-06-19T06:10:20;100800.75;;;16.48;35.80
69247;BME280;56358;56.328;43.992;2023-06-19T06:12:21;100796.03;;;16.50;35.77
69247;BME280;56358;56.328;43.992;2023-06-19T06:14:23;100795.56;;;16.55;34.62
69247;BME280;56358;56.328;43.992;2023-06-19T06:16:23;100797.44;;;16.54;34.28
69247;BME280;56358;56.328;43.992;2023-06-19T06:18:24;100786.47;;;16.56;34.69
69247;BME280;56358;56.328;43.992;2023-06-19T06:20:25;100785.31;;;16.58;34.70
69247;BME280;56358;56.328;43.992;2023-06-19T06:22:26;100785.41;;;16.67;35.04
69247;BME280;56358;56.328;43.992;2023-06-19T06:24:26;100784.75;;;16.55;34.02
69247;BME280;56358;56.328;43.992;2023-06-19T06:26:27;100785.47;;;16.57;34.43
69247;BME280;56358;56.328;43.992;2023-06-19T06:28:28;100786.00;;;16.61;34.21
69247;BME280;56358;56.328;43.992;2023-06-19T06:30:29;100764.97;;;16.54;33.75
69247;BME280;56358;56.328;43.992;2023-06-19T06:32:30;100777.19;;;16.58;33.89
69247;BME280;56358;56.328;43.992;2023-06-19T06:34:32;100774.75;;;16.55;34.71
69247;BME280;56358;56.328;43.992;2023-06-19T06:36:33;100781.81;;;16.66;35.19
69247;BME280;56358;56.328;43.992;2023-06-19T06:38:33;100784.66;;;16.74;35.42
69247;BME280;56358;56.328;43.992;2023-06-19T06:40:34;100777.84;;;16.88;34.59
69247;BME280;56358;56.328;43.992;2023-06-19T06:42:35;100737.00;;;16.64;33.68
69247;BME280;56358;56.328;43.992;2023-06-19T06:44:36;100778.84;;;16.87;34.30
69247;BME280;56358;56.328;43.992;2023-06-19T06:46:36;100777.75;;;16.80;33.57
69247;BME280;56358;56.328;43.992;2023-06-19T06:48:37;100767.63;;;16.82;33.65
69247;BME280;56358;56.328;43.992;2023-06-19T06:50:38;100767.31;;;16.85;33.65
69247;BME280;56358;56.328;43.992;2023-06-19T06:52:38;100753.00;;;16.75;34.54
69247;BME280;56358;56.328;43.992;2023-06-19T06:54:39;100724.50;;;16.53;34.63
69247;BME280;56358;56.328;43.992;2023-06-19T06:56:40;100762.19;;;16.82;33.80
69247;BME280;56358;56.328;43.992;2023-06-19T06:58:41;100762.19;;;16.82;34.48
69247;BME280;56358;56.328;43.992;2023-06-19T07:00:41;100766.28;;;16.86;34.50
69247;BME280;56358;56.328;43.992;2023-06-19T07:02:42;100762.75;;;16.86;33.62
69247;BME280;56358;56.328;43.992;2023-06-19T07:04:43;100769.16;;;16.95;33.32
69247;BME280;56358;56.328;43.992;2023-06-19T07:06:44;100762.63;;;17.05;32.63
69247;BME280;56358;56.328;43.992;2023-06-19T07:08:45;100760.16;;;17.12;33.91
69247;BME280;56358;56.328;43.992;2023-06-19T07:10:48;100757.69;;;17.19;33.54
69247;BME280;56358;56.328;43.992;2023-06-19T07:13:06;100728.81;;;17.09;33.50
69247;BME280;56358;56.328;43.992;2023-06-19T07:15:07;100746.69;;;17.20;33.54
69247;BME280;56358;56.328;43.992;2023-06-19T07:17:08;100742.03;;;17.13;33.50
69247;BME280;56358;56.328;43.992;2023-06-19T07:19:09;100753.50;;;17.06;32.43
69247;BME280;56358;56.328;43.992;2023-06-19T07:21:14;100714.00;;;16.86;32.72
69247;BME280;56358;56.328;43.992;2023-06-19T07:23:15;100735.28;;;16.81;32.77
69247;BME280;56358;56.328;43.992;2023-06-19T07:25:16;100744.06;;;16.92;32.50
69247;BME280;56358;56.328;43.992;2023-06-19T07:27:17;100706.59;;;16.70;32.99
69247;BME280;56358;56.328;43.992;2023-06-19T07:29:18;100745.69;;;17.03;33.53
69247;BME280;56358;56.328;43.992;2023-06-19T07:31:19;100739.81;;;17.08;34.19
69247;BME280;56358;56.328;43.992;2023-06-19T07:33:20;100739.72;;;17.00;34.42
69247;BME280;56358;56.328;43.992;2023-06-19T07:35:20;100728.44;;;17.04;34.20
69247;BME280;56358;56.328;43.992;2023-06-19T07:37:21;100727.22;;;17.25;33.79
69247;BME280;56358;56.328;43.992;2023-06-19T07:39:22;100732.25;;;17.38;32.61
69247;BME280;56358;56.328;43.992;2023-06-19T07:41:23;100729.16;;;17.33;33.87
69247;BME280;56358;56.328;43.992;2023-06-19T07:43:24;100709.16;;;17.07;33.20
69247;BME280;56358;56.328;43.992;2023-06-19T07:45:24;100712.50;;;17.01;34.38
69247;BME280;56358;56.328;43.992;2023-06-19T07:47:26;100739.63;;;17.28;33.60
69247;BME280;56358;56.328;43.992;2023-06-19T07:49:27;100732.09;;;17.39;32.96
69247;BME280;56358;56.328;43.992;2023-06-19T07:51:28;100730.31;;;17.48;33.18
69247;BME280;56358;56.328;43.992;2023-06-19T07:53:28;100733.00;;;17.48;33.94
69247;BME280;56358;56.328;43.992;2023-06-19T07:55:29;100734.47;;;17.42;33.86
69247;BME280;56358;56.328;43.992;2023-06-19T07:57:30;100738.22;;;17.41;33.85
69247;BME280;56358;56.328;43.992;2023-06-19T07:59:31;100741.31;;;17.29;34.13
69247;BME280;56358;56.328;43.992;2023-06-19T08:01:32;100703.13;;;17.14;33.17
69247;BME280;56358;56.328;43.992;2023-06-19T08:03:33;100723.59;;;17.34;34.50
69247;BME280;56358;56.328;43.992;2023-06-19T08:05:34;100735.41;;;17.33;33.96
69247;BME280;56358;56.328;43.992;2023-06-19T08:07:35;100726.41;;;17.24;33.92
69247;BME280;56358;56.328;43.992;2023-06-19T08:09:36;100715.88;;;17.03;34.10
69247;BME280;56358;56.328;43.992;2023-06-19T08:11:37;100752.94;;;17.21;35.27
69247;BME280;56358;56.328;43.992;2023-06-19T08:13:38;100724.25;;;16.92;34.15
69247;BME280;56358;56.328;43.992;2023-06-19T08:15:38;100744.28;;;16.99;34.06
69247;BME280;56358;56.328;43.992;2023-06-19T08:17:39;100736.63;;;17.13;33.25
69247;BME280;56358;56.328;43.992;2023-06-19T08:19:41;100740.16;;;17.31;33.24
69247;BME280;56358;56.328;43.992;2023-06-19T08:21:43;100738.00;;;17.61;33.48
69247;BME280;56358;56.328;43.992;2023-06-19T08:23:44;100702.97;;;17.94;32.36
69247;BME280;56358;56.328;43.992;2023-06-19T08:25:45;100724.25;;;18.15;32.88
69247;BME280;56358;56.328;43.992;2023-06-19T08:27:45;100718.84;;;17.89;32.84
69247;BME280;56358;56.328;43.992;2023-06-19T08:29:46;100714.00;;;17.74;32.65
69247;BME280;56358;56.328;43.992;2023-06-19T08:31:47;100715.00;;;17.73;33.90
69247;BME280;56358;56.328;43.992;2023-06-19T08:33:48;100712.25;;;17.91;34.62
69247;BME280;56358;56.328;43.992;2023-06-19T08:35:49;100707.41;;;18.03;32.60
69247;BME280;56358;56.328;43.992;2023-06-19T08:37:49;100706.50;;;18.29;32.92
69247;BME280;56358;56.328;43.992;2023-06-19T08:39:50;100717.03;;;18.40;32.55
69247;BME280;56358;56.328;43.992;2023-06-19T08:41:51;100699.56;;;18.43;32.92
69247;BME280;56358;56.328;43.992;2023-06-19T08:43:54;100702.38;;;18.17;31.50
69247;BME280;56358;56.328;43.992;2023-06-19T08:46:15;100701.81;;;18.05;32.12
69247;BME280;56358;56.328;43.992;2023-06-19T08:48:20;100705.69;;;17.94;33.45
69247;BME280;56358;56.328;43.992;2023-06-19T08:50:21;100703.97;;;17.93;33.16
69247;BME280;56358;56.328;43.992;2023-06-19T08:52:22;100658.44;;;17.79;32.51
69247;BME280;56358;56.328;43.992;2023-06-19T08:54:23;100701.72;;;18.23;33.16
69247;BME280;56358;56.328;43.992;2023-06-19T08:56:25;100686.34;;;18.48;32.56
69247;BME280;56358;56.328;43.992;2023-06-19T08:58:26;100687.94;;;18.75;30.60
69247;BME280;56358;56.328;43.992;2023-06-19T09:00:28;100682.69;;;19.07;31.00
69247;BME280;56358;56.328;43.992;2023-06-19T09:02:46;100699.19;;;18.89;32.99
69247;BME280;56358;56.328;43.992;2023-06-19T09:04:46;100690.97;;;18.64;33.19
69247;BME280;56358;56.328;43.992;2023-06-19T09:06:48;100705.88;;;18.52;32.95
69247;BME280;56358;56.328;43.992;2023-06-19T09:09:06;100682.94;;;18.38;32.16
69247;BME280;56358;56.328;43.992;2023-06-19T09:11:18;100618.41;;;18.07;32.52
69247;BME280;56358;56.328;43.992;2023-06-19T09:13:20;100676.47;;;18.39;31.42
69247;BME280;56358;56.328;43.992;2023-06-19T09:15:21;100675.50;;;18.48;31.19
69247;BME280;56358;56.328;43.992;2023-06-19T09:17:24;100674.84;;;18.63;30.75
69247;BME280;56358;56.328;43.992;2023-06-19T09:19:27;100658.72;;;18.61;31.22
69247;BME280;56358;56.328;43.992;2023-06-19T09:21:27;100679.28;;;18.88;29.97
69247;BME280;56358;56.328;43.992;2023-06-19T09:23:29;100681.97;;;18.55;32.08
69247;BME280;56358;56.328;43.992;2023-06-19T09:25:30;100686.41;;;18.73;32.21
69247;BME280;56358;56.328;43.992;2023-06-19T09:27:32;100675.84;;;18.70;31.78
69247;BME280;56358;56.328;43.992;2023-06-19T09:29:36;100672.03;;;18.89;30.46
69247;BME280;56358;56.328;43.992;2023-06-19T09:31:39;100676.91;;;19.10;30.45
69247;BME280;56358;56.328;43.992;2023-06-19T09:33:41;100666.84;;;19.43;29.83
69247;BME280;56358;56.328;43.992;2023-06-19T09:35:42;100658.38;;;19.47;29.29
69247;BME280;56358;56.328;43.992;2023-06-19T09:37:44;100656.31;;;19.49;30.44
69247;BME280;56358;56.328;43.992;2023-06-19T09:39:46;100656.47;;;19.55;29.05
69247;BME280;56358;56.328;43.992;2023-06-19T09:41:49;100619.59;;;19.53;28.12
69247;BME280;56358;56.328;43.992;2023-06-19T09:43:55;100653.53;;;19.82;27.86
69247;BME280;56358;56.328;43.992;2023-06-19T09:46:00;100639.84;;;19.98;28.68
69247;BME280;56358;56.328;43.992;2023-06-19T09:48:03;100620.34;;;20.18;29.11
69247;BME280;56358;56.328;43.992;2023-06-19T09:50:06;100641.94;;;20.74;29.17
69247;BME280;56358;56.328;43.992;2023-06-19T09:52:07;100642.31;;;21.09;28.00
69247;BME280;56358;56.328;43.992;2023-06-19T09:54:09;100658.69;;;21.09;27.85
69247;BME280;56358;56.328;43.992;2023-06-19T09:56:13;100639.97;;;21.06;26.57
69247;BME280;56358;56.328;43.992;2023-06-19T09:58:14;100645.75;;;21.26;27.00
69247;BME280;56358;56.328;43.992;2023-06-19T10:00:15;100588.28;;;21.13;26.83
69247;BME280;56358;56.328;43.992;2023-06-19T10:02:22;100636.94;;;21.54;26.10
69247;BME280;56358;56.328;43.992;2023-06-19T10:04:24;100634.13;;;21.77;25.89
69247;BME280;56358;56.328;43.992;2023-06-19T10:06:24;100629.56;;;21.99;25.51
69247;BME280;56358;56.328;43.992;2023-06-19T10:08:27;100634.88;;;22.37;25.18
69247;BME280;56358;56.328;43.992;2023-06-19T10:10:29;100611.78;;;22.62;24.91
69247;BME280;56358;56.328;43.992;2023-06-19T10:12:45;100628.88;;;22.70;24.59
69247;BME280;56358;56.328;43.992;2023-06-19T10:14:47;100632.00;;;22.67;24.62
69247;BME280;56358;56.328;43.992;2023-06-19T10:16:49;100625.38;;;22.76;24.62
69247;BME280;56358;56.328;43.992;2023-06-19T10:18:50;100610.31;;;22.87;24.06
69247;BME280;56358;56.328;43.992;2023-06-19T10:20:50;100615.44;;;23.19;23.90
69247;BME280;56358;56.328;43.992;2023-06-19T10:23:13;100611.75;;;23.40;23.49
69247;BME280;56358;56.328;43.992;2023-06-19T10:25:24;100599.94;;;23.33;23.62
69247;BME280;56358;56.328;43.992;2023-06-19T10:27:37;100596.41;;;23.81;23.20
69247;BME280;56358;56.328;43.992;2023-06-19T10:29:41;100594.88;;;24.13;22.90
69247;BME280;56358;56.328;43.992;2023-06-19T10:31:41;100598.28;;;24.35;22.55